sensor_id;sensor_type;location;lat;lon;timestamp;temperature;humidity
17639;DHT22;8938;53.546;9.954;2023-04-25T00:00:30;12.10;99.90
17639;DHT22;8938;53.546;9.954;2023-04-25T00:02:55;12.10;99.90
17639;DHT22;8938;53.546;9.954;2023-04-25T00:05:22;12.10;99.90
17639;DHT22;8938;53.546;9.954;2023-04-25T00:07:49;12.10;99.90
17639;DHT22;8938;53.546;9.954;2023-04-25T00:10:15;11.90;99.90
17639;DHT22;8938;53.546;9.954;2023-04-25T00:12:40;11.90;99.90
17639;DHT22;8938;53.546;9.954;2023-04-25T00:15:07;11.80;99.90
17639;DHT22;8938;53.546;9.954;2023-04-25T00:17:32;11.70;99.90
17639;DHT22;8938;53.546;9.954;2023-04-25T00:19:58;11.70;99.90
17639;DHT22;8938;53.546;9.954;2023-04-25T00:22:24;11.80;99.90
17639;DHT22;8938;53.546;9.954;2023-04-25T00:24:49;11.80;99.90
17639;DHT22;8938;53.546;9.954;2023-04-25T00:27:15;11.80;99.90
17639;DHT22;8938;53.546;9.954;2023-04-25T00:29:41;11.80;99.90
17639;DHT22;8938;53.546;9.954;2023-04-25T00:32:06;11.80;99.90
17639;DHT22;8938;53.546;9.954;2023-04-25T00:34:32;11.70;99.90
17639;DHT22;8938;53.546;9.954;2023-04-25T00:36:57;11.60;99.90
17639;DHT22;8938;53.546;9.954;2023-04-25T00:39:23;11.50;99.90
17639;DHT22;8938;53.546;9.954;2023-04-25T00:41:50;11.60;99.90
17639;DHT22;8938;53.546;9.954;2023-04-25T00:44:18;11.60;99.90
17639;DHT22;8938;53.546;9.954;2023-04-25T00:46:47;11.60;99.90
17639;DHT22;8938;53.546;9.954;2023-04-25T00:49:13;11.60;99.90
17639;DHT22;8938;53.546;9.954;2023-04-25T00:51:41;11.60;99.90
17639;DHT22;8938;53.546;9.954;2023-04-25T00:54:07;11.70;99.90
17639;DHT22;8938;53.546;9.954;2023-04-25T00:56:32;11.70;99.90
17639;DHT22;8938;53.546;9.954;2023-04-25T00:58:58;11.70;99.90
17639;DHT22;8938;53.546;9.954;2023-04-25T01:01:24;11.70;99.90
17639;DHT22;8938;53.546;9.954;2023-04-25T01:03:50;11.70;99.90
17639;DHT22;8938;53.546;9.954;2023-04-25T01:06:16;11.80;99.90
17639;DHT22;8938;53.546;9.954;2023-04-25T01:08:43;11.80;99.90
17639;DHT22;8938;53.546;9.954;2023-04-25T01:11:08;11.70;99.90
17639;DHT22;8938;53.546;9.954;2023-04-25T01:13:34;11.70;99.90
17639;DHT22;8938;53.546;9.954;2023-04-25T01:16:01;11.80;99.90
17639;DHT22;8938;53.546;9.954;2023-04-25T01:18:27;11.70;99.90
17639;DHT22;8938;53.546;9.954;2023-04-25T01:20:53;11.60;99.90
17639;DHT22;8938;53.546;9.954;2023-04-25T01:23:20;11.50;99.90
17639;DHT22;8938;53.546;9.954;2023-04-25T01:25:45;11.40;99.90
17639;DHT22;8938;53.546;9.954;2023-04-25T01:28:12;11.50;99.90
17639;DHT22;8938;53.546;9.954;2023-04-25T01:30:38;11.40;99.90
17639;DHT22;8938;53.546;9.954;2023-04-25T01:33:04;11.40;99.90
17639;DHT22;8938;53.546;9.954;2023-04-25T01:35:31;11.40;99.90
17639;DHT22;8938;53.546;9.954;2023-04-25T01:37:57;11.40;99.90
17639;DHT22;8938;53.546;9.954;2023-04-25T01:40:24;11.30;99.90
17639;DHT22;8938;53.546;9.954;2023-04-25T01:42:50;11.30;99.90
17639;DHT22;8938;53.546;9.954;2023-04-25T01:45:16;11.20;99.90
17639;DHT22;8938;53.546;9.954;2023-04-25T01:47:42;11.20;99.90
17639;DHT22;8938;53.546;9.954;2023-04-25T01:50:09;11.30;99.90
17639;DHT22;8938;53.546;9.954;2023-04-25T01:52:36;11.30;99.90
17639;DHT22;8938;53.546;9.954;2023-04-25T01:55:02;11.30;99.90
17639;DHT22;8938;53.546;9.954;2023-04-25T01:57:28;11.30;99.90
17639;DHT22;8938;53.546;9.954;2023-04-25T01:59:59;11.20;99.90
17639;DHT22;8938;53.546;9.954;2023-04-25T02:02:26;11.20;99.90
17639;DHT22;8938;53.546;9.954;2023-04-25T02:04:52;11.30;99.90
17639;DHT22;8938;53.546;9.954;2023-04-25T02:07:17;11.30;99.90
17639;DHT22;8938;53.546;9.954;2023-04-25T02:09:43;11.30;99.90
17639;DHT22;8938;53.546;9.954;2023-04-25T02:12:09;11.30;99.90
17639;DHT22;8938;53.546;9.954;2023-04-25T02:14:35;11.30;99.90
17639;DHT22;8938;53.546;9.954;2023-04-25T02:17:01;11.30;99.90
17639;DHT22;8938;53.546;9.954;2023-04-25T02:19:26;11.20;99.90
17639;DHT22;8938;53.546;9.954;2023-04-25T02:21:52;11.30;99.90
17639;DHT22;8938;53.546;9.954;2023-04-25T02:24:18;11.20;99.90
17639;DHT22;8938;53.546;9.954;2023-04-25T02:26:43;11.20;99.90
17639;DHT22;8938;53.546;9.954;2023-04-25T02:29:09;11.20;99.90
17639;DHT22;8938;53.546;9.954;2023-04-25T02:31:35;11.10;99.90
17639;DHT22;8938;53.546;9.954;2023-04-25T02:34:03;11.10;99.90
17639;DHT22;8938;53.546;9.954;2023-04-25T02:36:28;11.00;99.90
17639;DHT22;8938;53.546;9.954;2023-04-25T02:38:57;11.00;99.90
17639;DHT22;8938;53.546;9.954;2023-04-25T02:41:23;11.00;99.90
17639;DHT22;8938;53.546;9.954;2023-04-25T02:43:48;10.90;99.90
17639;DHT22;8938;53.546;9.954;2023-04-25T02:46:14;10.90;99.90
17639;DHT22;8938;53.546;9.954;2023-04-25T02:48:39;10.90;99.90
17639;DHT22;8938;53.546;9.954;2023-04-25T02:51:05;10.90;99.90
17639;DHT22;8938;53.546;9.954;2023-04-25T02:53:31;10.80;99.90
17639;DHT22;8938;53.546;9.954;2023-04-25T02:55:56;10.70;99.90
17639;DHT22;8938;53.546;9.954;2023-04-25T02:58:23;10.70;99.90
17639;DHT22;8938;53.546;9.954;2023-04-25T03:00:49;10.60;99.90
17639;DHT22;8938;53.546;9.954;2023-04-25T03:03:14;10.70;99.90
17639;DHT22;8938;53.546;9.954;2023-04-25T03:05:43;10.80;99.90
17639;DHT22;8938;53.546;9.954;2023-04-25T03:08:08;10.80;99.90
17639;DHT22;8938;53.546;9.954;2023-04-25T03:10:34;10.80;99.90
17639;DHT22;8938;53.546;9.954;2023-04-25T03:13:00;10.90;99.90
17639;DHT22;8938;53.546;9.954;2023-04-25T03:15:25;10.80;99.90
17639;DHT22;8938;53.546;9.954;2023-04-25T03:17:51;10.90;99.90
17639;DHT22;8938;53.546;9.954;2023-04-25T03:20:16;10.80;99.90
17639;DHT22;8938;53.546;9.954;2023-04-25T03:22:42;10.80;99.90
17639;DHT22;8938;53.546;9.954;2023-04-25T03:25:08;10.70;99.90
17639;DHT22;8938;53.546;9.954;2023-04-25T03:27:33;10.60;99.90
17639;DHT22;8938;53.546;9.954;2023-04-25T03:29:59;10.50;99.90
17639;DHT22;8938;53.546;9.954;2023-04-25T03:32:24;10.40;99.90
17639;DHT22;8938;53.546;9.954;2023-04-25T03:34:50;10.30;99.90
17639;DHT22;8938;53.546;9.954;2023-04-25T03:37:16;10.30;99.90
17639;DHT22;8938;53.546;9.954;2023-04-25T03:39:41;10.20;99.90
17639;DHT22;8938;53.546;9.954;2023-04-25T03:42:07;10.10;99.90
17639;DHT22;8938;53.546;9.954;2023-04-25T03:44:32;10.20;99.90
17639;DHT22;8938;53.546;9.954;2023-04-25T03:46:58;10.20;99.90
17639;DHT22;8938;53.546;9.954;2023-04-25T03:49:24;10.10;99.90
17639;DHT22;8938;53.546;9.954;2023-04-25T03:51:50;10.10;99.70
17639;DHT22;8938;53.546;9.954;2023-04-25T03:54:15;10.10;99.60
17639;DHT22;8938;53.546;9.954;2023-04-25T03:56:41;10.10;99.20
17639;DHT22;8938;53.546;9.954;2023-04-25T03:59:07;10.10;99.30
17639;DHT22;8938;53.546;9.954;2023-04-25T04:01:33;10.10;99.00
17639;DHT22;8938;53.546;9.954;2023-04-25T04:03:58;10.10;98.90
17639;DHT22;8938;53.546;9.954;2023-04-25T04:06:24;10.10;98.90
17639;DHT22;8938;53.546;9.954;2023-04-25T04:08:49;10.20;98.80
17639;DHT22;8938;53.546;9.954;2023-04-25T04:11:15;10.20;98.40
17639;DHT22;8938;53.546;9.954;2023-04-25T04:13:40;10.10;98.60
17639;DHT22;8938;53.546;9.954;2023-04-25T04:16:06;10.20;99.00
17639;DHT22;8938;53.546;9.954;2023-04-25T04:18:32;10.30;98.60
17639;DHT22;8938;53.546;9.954;2023-04-25T04:20:58;10.30;98.40
17639;DHT22;8938;53.546;9.954;2023-04-25T04:23:24;10.20;98.60
17639;DHT22;8938;53.546;9.954;2023-04-25T04:25:52;10.30;98.70
17639;DHT22;8938;53.546;9.954;2023-04-25T04:28:18;10.30;98.70
17639;DHT22;8938;53.546;9.954;2023-04-25T04:30:44;10.20;98.80
17639;DHT22;8938;53.546;9.954;2023-04-25T04:33:12;10.20;98.80
17639;DHT22;8938;53.546;9.954;2023-04-25T04:35:38;10.20;98.90
17639;DHT22;8938;53.546;9.954;2023-04-25T04:38:03;10.30;99.10
17639;DHT22;8938;53.546;9.954;2023-04-25T04:40:29;10.30;99.00
17639;DHT22;8938;53.546;9.954;2023-04-25T04:42:56;10.40;99.10
17639;DHT22;8938;53.546;9.954;2023-04-25T04:45:23;10.40;99.00
17639;DHT22;8938;53.546;9.954;2023-04-25T04:47:49;10.40;99.10
17639;DHT22;8938;53.546;9.954;2023-04-25T04:50:15;10.60;99.10
17639;DHT22;8938;53.546;9.954;2023-04-25T04:52:41;10.50;99.20
17639;DHT22;8938;53.546;9.954;2023-04-25T04:55:07;10.50;99.00
17639;DHT22;8938;53.546;9.954;2023-04-25T04:57:34;10.40;99.00
17639;DHT22;8938;53.546;9.954;2023-04-25T05:00:00;10.50;99.10
17639;DHT22;8938;53.546;9.954;2023-04-25T05:02:26;10.50;99.10
17639;DHT22;8938;53.546;9.954;2023-04-25T05:04:52;10.50;99.30
17639;DHT22;8938;53.546;9.954;2023-04-25T05:07:18;10.60;99.20
17639;DHT22;8938;53.546;9.954;2023-04-25T05:09:44;10.60;98.90
17639;DHT22;8938;53.546;9.954;2023-04-25T05:12:09;10.60;99.10
17639;DHT22;8938;53.546;9.954;2023-04-25T05:14:35;10.50;98.90
17639;DHT22;8938;53.546;9.954;2023-04-25T05:17:01;10.50;98.80
17639;DHT22;8938;53.546;9.954;2023-04-25T05:19:26;10.40;98.90
17639;DHT22;8938;53.546;9.954;2023-04-25T05:21:52;10.40;99.10
17639;DHT22;8938;53.546;9.954;2023-04-25T05:24:18;10.40;99.20
17639;DHT22;8938;53.546;9.954;2023-04-25T05:26:43;10.30;99.10
17639;DHT22;8938;53.546;9.954;2023-04-25T05:29:09;10.20;99.30
17639;DHT22;8938;53.546;9.954;2023-04-25T05:31:36;10.30;99.40
17639;DHT22;8938;53.546;9.954;2023-04-25T05:34:01;10.20;99.20
17639;DHT22;8938;53.546;9.954;2023-04-25T05:36:27;10.30;99.40
17639;DHT22;8938;53.546;9.954;2023-04-25T05:38:53;10.40;99.50
17639;DHT22;8938;53.546;9.954;2023-04-25T05:41:19;10.40;99.50
17639;DHT22;8938;53.546;9.954;2023-04-25T05:43:45;10.40;99.60
17639;DHT22;8938;53.546;9.954;2023-04-25T05:46:12;10.50;99.70
17639;DHT22;8938;53.546;9.954;2023-04-25T05:48:38;10.50;99.70
17639;DHT22;8938;53.546;9.954;2023-04-25T05:51:04;10.50;99.70
17639;DHT22;8938;53.546;9.954;2023-04-25T05:53:30;10.50;99.70
17639;DHT22;8938;53.546;9.954;2023-04-25T05:55:55;10.50;99.80
17639;DHT22;8938;53.546;9.954;2023-04-25T05:58:21;10.50;99.80
17639;DHT22;8938;53.546;9.954;2023-04-25T06:00:46;10.50;99.90
17639;DHT22;8938;53.546;9.954;2023-04-25T06:03:12;10.50;99.90
17639;DHT22;8938;53.546;9.954;2023-04-25T06:05:41;10.70;99.90
17639;DHT22;8938;53.546;9.954;2023-04-25T06:08:07;10.70;99.90
17639;DHT22;8938;53.546;9.954;2023-04-25T06:10:33;10.70;99.80
17639;DHT22;8938;53.546;9.954;2023-04-25T06:12:58;10.80;99.80
17639;DHT22;8938;53.546;9.954;2023-04-25T06:15:24;10.90;99.90
17639;DHT22;8938;53.546;9.954;2023-04-25T06:17:50;10.90;99.60
17639;DHT22;8938;53.546;9.954;2023-04-25T06:20:15;10.80;99.30
17639;DHT22;8938;53.546;9.954;2023-04-25T06:22:41;10.70;99.50
17639;DHT22;8938;53.546;9.954;2023-04-25T06:25:07;10.80;99.60
17639;DHT22;8938;53.546;9.954;2023-04-25T06:27:33;10.70;99.60
17639;DHT22;8938;53.546;9.954;2023-04-25T06:29:59;10.70;99.90
17639;DHT22;8938;53.546;9.954;2023-04-25T06:32:24;10.60;99.90
17639;DHT22;8938;53.546;9.954;2023-04-25T06:34:51;10.60;99.90
17639;DHT22;8938;53.546;9.954;2023-04-25T06:37:16;10.60;99.90
17639;DHT22;8938;53.546;9.954;2023-04-25T06:39:42;10.60;99.90
17639;DHT22;8938;53.546;9.954;2023-04-25T06:42:07;10.60;99.90
17639;DHT22;8938;53.546;9.954;2023-04-25T06:44:33;10.70;99.90
17639;DHT22;8938;53.546;9.954;2023-04-25T06:46:59;10.70;99.90
17639;DHT22;8938;53.546;9.954;2023-04-25T06:49:24;10.80;99.90
17639;DHT22;8938;53.546;9.954;2023-04-25T06:51:50;10.90;99.90
17639;DHT22;8938;53.546;9.954;2023-04-25T06:54:15;11.00;99.90
17639;DHT22;8938;53.546;9.954;2023-04-25T06:56:41;11.00;99.90
17639;DHT22;8938;53.546;9.954;2023-04-25T06:59:07;11.20;99.90
17639;DHT22;8938;53.546;9.954;2023-04-25T07:01:32;11.20;99.90
17639;DHT22;8938;53.546;9.954;2023-04-25T07:03:58;11.30;99.90
17639;DHT22;8938;53.546;9.954;2023-04-25T07:06:23;11.40;99.90
17639;DHT22;8938;53.546;9.954;2023-04-25T07:08:51;11.50;99.80
17639;DHT22;8938;53.546;9.954;2023-04-25T07:11:16;11.50;99.80
17639;DHT22;8938;53.546;9.954;2023-04-25T07:13:42;11.60;99.70
17639;DHT22;8938;53.546;9.954;2023-04-25T07:16:07;11.70;99.90
17639;DHT22;8938;53.546;9.954;2023-04-25T07:18:33;12.00;99.90
17639;DHT22;8938;53.546;9.954;2023-04-25T07:20:58;12.10;99.90
17639;DHT22;8938;53.546;9.954;2023-04-25T07:23:23;12.00;99.60
17639;DHT22;8938;53.546;9.954;2023-04-25T07:25:49;12.00;99.50
17639;DHT22;8938;53.546;9.954;2023-04-25T07:28:15;12.00;99.40
17639;DHT22;8938;53.546;9.954;2023-04-25T07:30:40;11.90;99.20
17639;DHT22;8938;53.546;9.954;2023-04-25T07:33:06;11.80;99.20
17639;DHT22;8938;53.546;9.954;2023-04-25T07:35:31;11.80;99.30
17639;DHT22;8938;53.546;9.954;2023-04-25T07:37:57;11.80;98.80
17639;DHT22;8938;53.546;9.954;2023-04-25T07:40:22;11.80;99.00
17639;DHT22;8938;53.546;9.954;2023-04-25T07:42:48;11.90;98.80
17639;DHT22;8938;53.546;9.954;2023-04-25T07:45:13;11.90;98.90
17639;DHT22;8938;53.546;9.954;2023-04-25T07:47:39;12.00;98.90
17639;DHT22;8938;53.546;9.954;2023-04-25T07:50:05;12.00;98.60
17639;DHT22;8938;53.546;9.954;2023-04-25T07:52:31;12.10;98.50
17639;DHT22;8938;53.546;9.954;2023-04-25T07:54:56;12.20;98.60
17639;DHT22;8938;53.546;9.954;2023-04-25T07:57:24;12.30;98.40
17639;DHT22;8938;53.546;9.954;2023-04-25T07:59:49;12.50;98.20
17639;DHT22;8938;53.546;9.954;2023-04-25T08:02:15;12.50;97.90
17639;DHT22;8938;53.546;9.954;2023-04-25T08:04:40;12.50;97.60
17639;DHT22;8938;53.546;9.954;2023-04-25T08:07:06;12.60;97.70
17639;DHT22;8938;53.546;9.954;2023-04-25T08:09:32;12.60;97.40
17639;DHT22;8938;53.546;9.954;2023-04-25T08:12:01;12.60;97.20
17639;DHT22;8938;53.546;9.954;2023-04-25T08:14:27;12.70;97.30
17639;DHT22;8938;53.546;9.954;2023-04-25T08:16:54;12.80;97.40
17639;DHT22;8938;53.546;9.954;2023-04-25T08:19:19;13.00;97.00
17639;DHT22;8938;53.546;9.954;2023-04-25T08:21:45;12.90;96.00
17639;DHT22;8938;53.546;9.954;2023-04-25T08:24:10;12.80;96.30
17639;DHT22;8938;53.546;9.954;2023-04-25T08:26:36;12.80;96.40
17639;DHT22;8938;53.546;9.954;2023-04-25T08:29:02;12.80;96.10
17639;DHT22;8938;53.546;9.954;2023-04-25T08:31:28;12.80;96.00
17639;DHT22;8938;53.546;9.954;2023-04-25T08:33:53;12.90;96.00
17639;DHT22;8938;53.546;9.954;2023-04-25T08:36:19;12.90;95.80
17639;DHT22;8938;53.546;9.954;2023-04-25T08:38:44;13.00;95.50
17639;DHT22;8938;53.546;9.954;2023-04-25T08:41:11;12.90;95.50
17639;DHT22;8938;53.546;9.954;2023-04-25T08:43:37;12.90;95.40
17639;DHT22;8938;53.546;9.954;2023-04-25T08:46:04;13.00;95.70
17639;DHT22;8938;53.546;9.954;2023-04-25T08:48:32;13.00;95.60
17639;DHT22;8938;53.546;9.954;2023-04-25T08:50:59;13.00;95.40
17639;DHT22;8938;53.546;9.954;2023-04-25T08:53:28;13.00;95.30
17639;DHT22;8938;53.546;9.954;2023-04-25T08:55:55;12.80;95.20
17639;DHT22;8938;53.546;9.954;2023-04-25T08:58:21;12.60;95.40
17639;DHT22;8938;53.546;9.954;2023-04-25T09:00:48;12.40;96.10
17639;DHT22;8938;53.546;9.954;2023-04-25T09:03:13;12.40;96.20
17639;DHT22;8938;53.546;9.954;2023-04-25T09:05:40;12.30;96.30
17639;DHT22;8938;53.546;9.954;2023-04-25T09:08:06;12.10;95.90
17639;DHT22;8938;53.546;9.954;2023-04-25T09:10:33;11.90;95.50
17639;DHT22;8938;53.546;9.954;2023-04-25T09:13:25;11.90;95.60
17639;DHT22;8938;53.546;9.954;2023-04-25T09:15:56;11.70;95.80
17639;DHT22;8938;53.546;9.954;2023-04-25T09:18:26;11.70;95.80
17639;DHT22;8938;53.546;9.954;2023-04-25T09:20:56;11.60;96.00
17639;DHT22;8938;53.546;9.954;2023-04-25T09:23:23;11.50;95.90
17639;DHT22;8938;53.546;9.954;2023-04-25T09:25:52;11.70;96.20
17639;DHT22;8938;53.546;9.954;2023-04-25T09:28:26;11.80;96.00
17639;DHT22;8938;53.546;9.954;2023-04-25T09:30:56;12.00;96.00
17639;DHT22;8938;53.546;9.954;2023-04-25T09:33:31;12.90;96.00
17639;DHT22;8938;53.546;9.954;2023-04-25T09:36:09;14.90;95.70
17639;DHT22;8938;53.546;9.954;2023-04-25T09:38:45;17.00;92.80
17639;DHT22;8938;53.546;9.954;2023-04-25T09:41:12;17.50;90.20
17639;DHT22;8938;53.546;9.954;2023-04-25T09:43:38;16.20;90.50
17639;DHT22;8938;53.546;9.954;2023-04-25T09:46:08;15.00;92.70
17639;DHT22;8938;53.546;9.954;2023-04-25T09:48:35;14.20;94.20
17639;DHT22;8938;53.546;9.954;2023-04-25T09:51:05;13.70;95.20
17639;DHT22;8938;53.546;9.954;2023-04-25T09:53:34;13.40;95.30
17639;DHT22;8938;53.546;9.954;2023-04-25T09:56:04;13.10;95.40
17639;DHT22;8938;53.546;9.954;2023-04-25T09:58:31;12.80;95.40
17639;DHT22;8938;53.546;9.954;2023-04-25T10:01:00;12.60;95.30
17639;DHT22;8938;53.546;9.954;2023-04-25T10:03:30;12.50;95.50
17639;DHT22;8938;53.546;9.954;2023-04-25T10:05:59;12.50;95.60
17639;DHT22;8938;53.546;9.954;2023-04-25T10:08:26;12.60;95.70
17639;DHT22;8938;53.546;9.954;2023-04-25T10:10:55;12.90;95.80
17639;DHT22;8938;53.546;9.954;2023-04-25T10:13:20;13.90;96.30
17639;DHT22;8938;53.546;9.954;2023-04-25T10:15:47;15.40;94.70
17639;DHT22;8938;53.546;9.954;2023-04-25T10:18:12;16.20;92.60
17639;DHT22;8938;53.546;9.954;2023-04-25T10:20:38;16.20;92.00
17639;DHT22;8938;53.546;9.954;2023-04-25T10:23:15;15.40;90.50
17639;DHT22;8938;53.546;9.954;2023-04-25T10:25:41;14.50;90.10
17639;DHT22;8938;53.546;9.954;2023-04-25T10:28:07;13.90;90.90
17639;DHT22;8938;53.546;9.954;2023-04-25T10:30:32;14.20;91.40
17639;DHT22;8938;53.546;9.954;2023-04-25T10:32:59;15.20;91.20
17639;DHT22;8938;53.546;9.954;2023-04-25T10:35:29;16.10;90.50
17639;DHT22;8938;53.546;9.954;2023-04-25T10:38:03;16.00;89.40
17639;DHT22;8938;53.546;9.954;2023-04-25T10:40:33;15.40;90.20
17639;DHT22;8938;53.546;9.954;2023-04-25T10:46:22;14.50;91.90
17639;DHT22;8938;53.546;9.954;2023-04-25T10:48:53;14.40;92.20
17639;DHT22;8938;53.546;9.954;2023-04-25T10:53:45;14.10;92.20
17639;DHT22;8938;53.546;9.954;2023-04-25T10:56:11;14.00;92.30
17639;DHT22;8938;53.546;9.954;2023-04-25T10:58:43;13.90;91.70
17639;DHT22;8938;53.546;9.954;2023-04-25T11:01:08;13.60;91.90
17639;DHT22;8938;53.546;9.954;2023-04-25T11:03:40;13.60;92.60
17639;DHT22;8938;53.546;9.954;2023-04-25T11:06:34;13.60;92.80
17639;DHT22;8938;53.546;9.954;2023-04-25T11:08:57;13.60;93.10
17639;DHT22;8938;53.546;9.954;2023-04-25T11:11:25;13.60;93.50
17639;DHT22;8938;53.546;9.954;2023-04-25T11:13:51;13.50;93.20
17639;DHT22;8938;53.546;9.954;2023-04-25T11:16:17;13.30;93.70
17639;DHT22;8938;53.546;9.954;2023-04-25T11:18:46;13.20;93.50
17639;DHT22;8938;53.546;9.954;2023-04-25T11:21:13;13.30;93.80
17639;DHT22;8938;53.546;9.954;2023-04-25T11:23:38;13.60;93.30
17639;DHT22;8938;53.546;9.954;2023-04-25T11:26:04;13.80;93.70
17639;DHT22;8938;53.546;9.954;2023-04-25T11:28:29;14.10;93.50
17639;DHT22;8938;53.546;9.954;2023-04-25T11:30:56;14.30;92.70
17639;DHT22;8938;53.546;9.954;2023-04-25T11:33:25;14.40;93.30
17639;DHT22;8938;53.546;9.954;2023-04-25T11:35:53;14.30;92.60
17639;DHT22;8938;53.546;9.954;2023-04-25T11:38:20;14.00;92.80
17639;DHT22;8938;53.546;9.954;2023-04-25T11:40:50;13.20;92.90
17639;DHT22;8938;53.546;9.954;2023-04-25T11:43:15;12.50;93.20
17639;DHT22;8938;53.546;9.954;2023-04-25T11:45:41;12.10;94.20
17639;DHT22;8938;53.546;9.954;2023-04-25T11:48:07;12.00;95.00
17639;DHT22;8938;53.546;9.954;2023-04-25T11:50:32;12.00;95.40
17639;DHT22;8938;53.546;9.954;2023-04-25T11:52:58;11.90;95.50
17639;DHT22;8938;53.546;9.954;2023-04-25T11:55:23;11.90;95.70
17639;DHT22;8938;53.546;9.954;2023-04-25T11:57:49;12.00;96.10
17639;DHT22;8938;53.546;9.954;2023-04-25T12:00:20;12.30;96.10
17639;DHT22;8938;53.546;9.954;2023-04-25T12:02:47;12.40;96.10
17639;DHT22;8938;53.546;9.954;2023-04-25T12:05:14;12.60;95.70
17639;DHT22;8938;53.546;9.954;2023-04-25T12:07:43;13.00;95.70
17639;DHT22;8938;53.546;9.954;2023-04-25T12:10:12;13.10;95.20
17639;DHT22;8938;53.546;9.954;2023-04-25T12:12:41;13.30;95.60
17639;DHT22;8938;53.546;9.954;2023-04-25T12:15:14;13.40;95.30
17639;DHT22;8938;53.546;9.954;2023-04-25T12:17:42;13.50;94.40
17639;DHT22;8938;53.546;9.954;2023-04-25T12:20:13;13.70;94.40
17639;DHT22;8938;53.546;9.954;2023-04-25T12:22:41;14.10;93.40
17639;DHT22;8938;53.546;9.954;2023-04-25T12:25:10;14.30;91.90
17639;DHT22;8938;53.546;9.954;2023-04-25T12:27:36;14.30;90.60
17639;DHT22;8938;53.546;9.954;2023-04-25T12:30:02;14.30;90.40
17639;DHT22;8938;53.546;9.954;2023-04-25T12:32:28;14.20;90.30
17639;DHT22;8938;53.546;9.954;2023-04-25T12:34:54;14.00;90.40
17639;DHT22;8938;53.546;9.954;2023-04-25T12:37:20;13.80;90.50
17639;DHT22;8938;53.546;9.954;2023-04-25T12:39:46;13.70;90.40
17639;DHT22;8938;53.546;9.954;2023-04-25T12:42:11;13.70;90.20
17639;DHT22;8938;53.546;9.954;2023-04-25T12:44:37;13.80;90.40
17639;DHT22;8938;53.546;9.954;2023-04-25T12:47:04;14.00;90.00
17639;DHT22;8938;53.546;9.954;2023-04-25T12:49:30;14.10;89.40
17639;DHT22;8938;53.546;9.954;2023-04-25T12:51:56;14.10;89.60
17639;DHT22;8938;53.546;9.954;2023-04-25T12:54:21;14.00;89.20
17639;DHT22;8938;53.546;9.954;2023-04-25T12:56:47;13.70;89.90
17639;DHT22;8938;53.546;9.954;2023-04-25T12:59:13;13.50;91.10
17639;DHT22;8938;53.546;9.954;2023-04-25T13:01:38;13.20;91.70
17639;DHT22;8938;53.546;9.954;2023-04-25T13:04:04;13.10;92.40
17639;DHT22;8938;53.546;9.954;2023-04-25T13:06:29;13.10;92.70
17639;DHT22;8938;53.546;9.954;2023-04-25T13:08:56;13.30;92.60
17639;DHT22;8938;53.546;9.954;2023-04-25T13:11:21;13.50;92.00
17639;DHT22;8938;53.546;9.954;2023-04-25T13:13:47;14.00;91.10
17639;DHT22;8938;53.546;9.954;2023-04-25T13:16:12;14.10;90.40
17639;DHT22;8938;53.546;9.954;2023-04-25T13:18:41;13.80;90.40
17639;DHT22;8938;53.546;9.954;2023-04-25T13:21:07;13.30;91.50
17639;DHT22;8938;53.546;9.954;2023-04-25T13:23:34;12.70;93.30
17639;DHT22;8938;53.546;9.954;2023-04-25T13:25:59;12.20;94.50
17639;DHT22;8938;53.546;9.954;2023-04-25T13:28:27;11.80;95.20
17639;DHT22;8938;53.546;9.954;2023-04-25T13:30:53;11.60;96.00
17639;DHT22;8938;53.546;9.954;2023-04-25T13:33:19;11.70;96.20
17639;DHT22;8938;53.546;9.954;2023-04-25T13:35:46;11.80;96.40
17639;DHT22;8938;53.546;9.954;2023-04-25T13:38:15;11.90;96.20
17639;DHT22;8938;53.546;9.954;2023-04-25T13:40:40;12.10;96.50
17639;DHT22;8938;53.546;9.954;2023-04-25T13:43:05;12.50;96.10
17639;DHT22;8938;53.546;9.954;2023-04-25T13:45:32;12.60;96.00
17639;DHT22;8938;53.546;9.954;2023-04-25T13:47:57;12.80;95.70
17639;DHT22;8938;53.546;9.954;2023-04-25T13:50:23;13.00;95.50
17639;DHT22;8938;53.546;9.954;2023-04-25T13:52:48;13.00;95.20
17639;DHT22;8938;53.546;9.954;2023-04-25T13:55:14;12.70;95.50
17639;DHT22;8938;53.546;9.954;2023-04-25T13:57:40;12.20;95.70
17639;DHT22;8938;53.546;9.954;2023-04-25T14:00:05;11.40;96.20
17639;DHT22;8938;53.546;9.954;2023-04-25T14:02:35;10.90;97.10
17639;DHT22;8938;53.546;9.954;2023-04-25T14:05:01;10.60;97.50
17639;DHT22;8938;53.546;9.954;2023-04-25T14:07:27;10.50;98.00
17639;DHT22;8938;53.546;9.954;2023-04-25T14:09:53;10.60;98.00
17639;DHT22;8938;53.546;9.954;2023-04-25T14:12:18;10.80;98.20
17639;DHT22;8938;53.546;9.954;2023-04-25T14:14:44;11.00;98.10
17639;DHT22;8938;53.546;9.954;2023-04-25T14:17:09;11.40;98.40
17639;DHT22;8938;53.546;9.954;2023-04-25T14:19:35;11.80;98.00
17639;DHT22;8938;53.546;9.954;2023-04-25T14:22:01;12.00;98.10
17639;DHT22;8938;53.546;9.954;2023-04-25T14:24:27;12.00;97.10
17639;DHT22;8938;53.546;9.954;2023-04-25T14:26:52;12.10;97.30
17639;DHT22;8938;53.546;9.954;2023-04-25T14:29:18;12.10;96.90
17639;DHT22;8938;53.546;9.954;2023-04-25T14:31:43;12.10;96.60
17639;DHT22;8938;53.546;9.954;2023-04-25T14:34:10;12.10;96.90
17639;DHT22;8938;53.546;9.954;2023-04-25T14:36:36;12.10;96.20
17639;DHT22;8938;53.546;9.954;2023-04-25T14:39:02;12.00;96.20
17639;DHT22;8938;53.546;9.954;2023-04-25T14:41:28;12.10;96.20
17639;DHT22;8938;53.546;9.954;2023-04-25T14:43:53;12.20;96.00
17639;DHT22;8938;53.546;9.954;2023-04-25T14:46:20;12.30;95.80
17639;DHT22;8938;53.546;9.954;2023-04-25T14:48:46;12.50;96.20
17639;DHT22;8938;53.546;9.954;2023-04-25T14:51:12;12.70;95.80
17639;DHT22;8938;53.546;9.954;2023-04-25T14:53:38;12.80;96.10
17639;DHT22;8938;53.546;9.954;2023-04-25T14:56:03;12.90;94.80
17639;DHT22;8938;53.546;9.954;2023-04-25T14:58:29;13.00;94.30
17639;DHT22;8938;53.546;9.954;2023-04-25T15:00:54;13.00;93.90
17639;DHT22;8938;53.546;9.954;2023-04-25T15:03:20;13.10;93.60
17639;DHT22;8938;53.546;9.954;2023-04-25T15:05:45;13.10;93.40
17639;DHT22;8938;53.546;9.954;2023-04-25T15:08:11;13.10;92.60
17639;DHT22;8938;53.546;9.954;2023-04-25T15:10:37;12.90;91.90
17639;DHT22;8938;53.546;9.954;2023-04-25T15:13:03;12.70;92.50
17639;DHT22;8938;53.546;9.954;2023-04-25T15:15:29;12.40;93.50
17639;DHT22;8938;53.546;9.954;2023-04-25T15:17:55;12.10;94.00
17639;DHT22;8938;53.546;9.954;2023-04-25T15:20:21;11.90;94.60
17639;DHT22;8938;53.546;9.954;2023-04-25T15:22:47;11.90;95.20
17639;DHT22;8938;53.546;9.954;2023-04-25T15:25:16;11.90;95.60
17639;DHT22;8938;53.546;9.954;2023-04-25T15:27:45;12.00;95.40
17639;DHT22;8938;53.546;9.954;2023-04-25T15:30:15;12.00;95.40
17639;DHT22;8938;53.546;9.954;2023-04-25T15:32:41;12.00;95.30
17639;DHT22;8938;53.546;9.954;2023-04-25T15:35:07;12.20;95.40
17639;DHT22;8938;53.546;9.954;2023-04-25T15:37:34;12.20;94.80
17639;DHT22;8938;53.546;9.954;2023-04-25T15:42:29;12.30;94.60
17639;DHT22;8938;53.546;9.954;2023-04-25T15:44:55;12.30;94.50
17639;DHT22;8938;53.546;9.954;2023-04-25T15:47:21;12.30;94.60